<?xml version="1.0" encoding="UTF-8" standalone="no" ?><gpx xmlns="http://www.topografix.com/GPX/1/1" xmlns:gpxx="http://www.garmin.com/xmlschemas/GpxExtensions/v3" xmlns:wptx1="http://www.garmin.com/xmlschemas/WaypointExtension/v1" xmlns:gpxtpx="http://www.garmin.com/xmlschemas/TrackPointExtension/v1" creator="GuideVTT.com" version="1.1" xmlns:xsi="http://www.w3.org/2001/XMLSchema-instance" xsi:schemaLocation="http://www.topografix.com/GPX/1/1 http://www.topografix.com/GPX/1/1/gpx.xsd http://www.garmin.com/xmlschemas/GpxExtensions/v3 http://www8.garmin.com/xmlschemas/GpxExtensionsv3.xsd http://www.garmin.com/xmlschemas/WaypointExtension/v1 http://www8.garmin.com/xmlschemas/WaypointExtensionv1.xsd http://www.garmin.com/xmlschemas/TrackPointExtension/v1 http://www.garmin.com/xmlschemas/TrackPointExtensionv1.xsd">
<metadata><link href="http://www.garmin.com"><text>Garmin International</text></link><time>2013-06-22T15:13:50Z</time></metadata>
<trk><name>rp2019_15.gpx</name><extensions><gpxx:TrackExtension><gpxx:DisplayColor>Cyan</gpxx:DisplayColor></gpxx:TrackExtension></extensions><trkseg>
<trkpt lat="46.20651" lon="7.43976"><ele>1523.8</ele><time>2019-07-15T16:52:20Z</time></trkpt>
<trkpt lat="46.20651" lon="7.4398"><ele>1523.8</ele><time>2019-07-15T16:52:21Z</time></trkpt>
<trkpt lat="46.20656" lon="7.43989"><ele>1524.6</ele><time>2019-07-15T16:52:25Z</time></trkpt>
<trkpt lat="46.20659" lon="7.43996"><ele>1524.6</ele><time>2019-07-15T16:52:27Z</time></trkpt>
<trkpt lat="46.20664" lon="7.44009"><ele>1525</ele><time>2019-07-15T16:52:30Z</time></trkpt>
<trkpt lat="46.20669" lon="7.44017"><ele>1524.8</ele><time>2019-07-15T16:52:32Z</time></trkpt>
<trkpt lat="46.20684" lon="7.44033"><ele>1524.2</ele><time>2019-07-15T16:52:37Z</time></trkpt>
<trkpt lat="46.20704" lon="7.44046"><ele>1523</ele><time>2019-07-15T16:52:42Z</time></trkpt>
<trkpt lat="46.20725" lon="7.44057"><ele>1520.6</ele><time>2019-07-15T16:52:46Z</time></trkpt>
<trkpt lat="46.20744" lon="7.44065"><ele>1519.2</ele><time>2019-07-15T16:52:49Z</time></trkpt>
<trkpt lat="46.20765" lon="7.44069"><ele>1517.4</ele><time>2019-07-15T16:52:52Z</time></trkpt>
<trkpt lat="46.2078" lon="7.4407"><ele>1516</ele><time>2019-07-15T16:52:54Z</time></trkpt>
<trkpt lat="46.20804" lon="7.44069"><ele>1513.8</ele><time>2019-07-15T16:52:57Z</time></trkpt>
<trkpt lat="46.20828" lon="7.44059"><ele>1511.8</ele><time>2019-07-15T16:53:00Z</time></trkpt>
<trkpt lat="46.20852" lon="7.44046"><ele>1509.6</ele><time>2019-07-15T16:53:03Z</time></trkpt>
<trkpt lat="46.20867" lon="7.44039"><ele>1508.6</ele><time>2019-07-15T16:53:05Z</time></trkpt>
<trkpt lat="46.20888" lon="7.44028"><ele>1506.8</ele><time>2019-07-15T16:53:08Z</time></trkpt>
<trkpt lat="46.20894" lon="7.44025"><ele>1506.2</ele><time>2019-07-15T16:53:09Z</time></trkpt>
<trkpt lat="46.20914" lon="7.44029"><ele>1504</ele><time>2019-07-15T16:53:12Z</time></trkpt>
<trkpt lat="46.20921" lon="7.44033"><ele>1503</ele><time>2019-07-15T16:53:13Z</time></trkpt>
<trkpt lat="46.20936" lon="7.44039"><ele>1501.2</ele><time>2019-07-15T16:53:15Z</time></trkpt>
<trkpt lat="46.2096" lon="7.44032"><ele>1498.4</ele><time>2019-07-15T16:53:18Z</time></trkpt>
<trkpt lat="46.20976" lon="7.44018"><ele>1496.2</ele><time>2019-07-15T16:53:20Z</time></trkpt>
<trkpt lat="46.20993" lon="7.44002"><ele>1494.4</ele><time>2019-07-15T16:53:22Z</time></trkpt>
<trkpt lat="46.21009" lon="7.43986"><ele>1492.6</ele><time>2019-07-15T16:53:24Z</time></trkpt>
<trkpt lat="46.21025" lon="7.4397"><ele>1490.6</ele><time>2019-07-15T16:53:26Z</time></trkpt>
<trkpt lat="46.21039" lon="7.43952"><ele>1488.6</ele><time>2019-07-15T16:53:28Z</time></trkpt>
<trkpt lat="46.21051" lon="7.43931"><ele>1487.2</ele><time>2019-07-15T16:53:30Z</time></trkpt>
<trkpt lat="46.21057" lon="7.43921"><ele>1486.4</ele><time>2019-07-15T16:53:31Z</time></trkpt>
<trkpt lat="46.21064" lon="7.43911"><ele>1485.6</ele><time>2019-07-15T16:53:32Z</time></trkpt>
<trkpt lat="46.21071" lon="7.43903"><ele>1484.8</ele><time>2019-07-15T16:53:33Z</time></trkpt>
<trkpt lat="46.21087" lon="7.43891"><ele>1483.4</ele><time>2019-07-15T16:53:35Z</time></trkpt>
<trkpt lat="46.21103" lon="7.4388"><ele>1482.2</ele><time>2019-07-15T16:53:37Z</time></trkpt>
<trkpt lat="46.2112" lon="7.43869"><ele>1480.4</ele><time>2019-07-15T16:53:39Z</time></trkpt>
<trkpt lat="46.21136" lon="7.43854"><ele>1479</ele><time>2019-07-15T16:53:41Z</time></trkpt>
<trkpt lat="46.21151" lon="7.43835"><ele>1477.6</ele><time>2019-07-15T16:53:43Z</time></trkpt>
<trkpt lat="46.21165" lon="7.43814"><ele>1476.6</ele><time>2019-07-15T16:53:45Z</time></trkpt>
<trkpt lat="46.21177" lon="7.43792"><ele>1475.6</ele><time>2019-07-15T16:53:47Z</time></trkpt>
<trkpt lat="46.21189" lon="7.4377"><ele>1473.8</ele><time>2019-07-15T16:53:49Z</time></trkpt>
<trkpt lat="46.21201" lon="7.43748"><ele>1471.8</ele><time>2019-07-15T16:53:51Z</time></trkpt>
<trkpt lat="46.21215" lon="7.4373"><ele>1469.6</ele><time>2019-07-15T16:53:53Z</time></trkpt>
<trkpt lat="46.21221" lon="7.4372"><ele>1468.6</ele><time>2019-07-15T16:53:54Z</time></trkpt>
<trkpt lat="46.21233" lon="7.43698"><ele>1469</ele><time>2019-07-15T16:53:56Z</time></trkpt>
<trkpt lat="46.21251" lon="7.43679"><ele>1471.4</ele><time>2019-07-15T16:53:59Z</time></trkpt>
<trkpt lat="46.21267" lon="7.43664"><ele>1473.4</ele><time>2019-07-15T16:54:03Z</time></trkpt>
<trkpt lat="46.21275" lon="7.43656"><ele>1474.4</ele><time>2019-07-15T16:54:06Z</time></trkpt>
<trkpt lat="46.21283" lon="7.43648"><ele>1475.6</ele><time>2019-07-15T16:54:10Z</time></trkpt>
<trkpt lat="46.2129" lon="7.43642"><ele>1476.6</ele><time>2019-07-15T16:54:14Z</time></trkpt>
<trkpt lat="46.21296" lon="7.43635"><ele>1477.8</ele><time>2019-07-15T16:54:18Z</time></trkpt>
<trkpt lat="46.21306" lon="7.43625"><ele>1479</ele><time>2019-07-15T16:54:24Z</time></trkpt>
<trkpt lat="46.21308" lon="7.43624"><ele>1479.2</ele><time>2019-07-15T16:54:25Z</time></trkpt>
<trkpt lat="46.21316" lon="7.43618"><ele>1479.8</ele><time>2019-07-15T16:54:30Z</time></trkpt>
<trkpt lat="46.21321" lon="7.43612"><ele>1480.4</ele><time>2019-07-15T16:54:34Z</time></trkpt>
<trkpt lat="46.21331" lon="7.43604"><ele>1481.4</ele><time>2019-07-15T16:54:40Z</time></trkpt>
<trkpt lat="46.21346" lon="7.4359"><ele>1482.8</ele><time>2019-07-15T16:54:50Z</time></trkpt>
<trkpt lat="46.21352" lon="7.43586"><ele>1483.2</ele><time>2019-07-15T16:54:54Z</time></trkpt>
<trkpt lat="46.21358" lon="7.4358"><ele>1483.8</ele><time>2019-07-15T16:54:58Z</time></trkpt>
<trkpt lat="46.21369" lon="7.43571"><ele>1484.6</ele><time>2019-07-15T16:55:05Z</time></trkpt>
<trkpt lat="46.21375" lon="7.43566"><ele>1485.2</ele><time>2019-07-15T16:55:09Z</time></trkpt>
<trkpt lat="46.21392" lon="7.43553"><ele>1487.2</ele><time>2019-07-15T16:55:20Z</time></trkpt>
<trkpt lat="46.21405" lon="7.43538"><ele>1488.6</ele><time>2019-07-15T16:55:29Z</time></trkpt>
<trkpt lat="46.21408" lon="7.43535"><ele>1488.8</ele><time>2019-07-15T16:55:31Z</time></trkpt>
<trkpt lat="46.21412" lon="7.4353"><ele>1489.4</ele><time>2019-07-15T16:55:34Z</time></trkpt>
<trkpt lat="46.21416" lon="7.43525"><ele>1489.8</ele><time>2019-07-15T16:55:37Z</time></trkpt>
<trkpt lat="46.21432" lon="7.43511"><ele>1491.4</ele><time>2019-07-15T16:55:47Z</time></trkpt>
<trkpt lat="46.2145" lon="7.43501"><ele>1493</ele><time>2019-07-15T16:55:57Z</time></trkpt>
<trkpt lat="46.21468" lon="7.43495"><ele>1494.6</ele><time>2019-07-15T16:56:07Z</time></trkpt>
<trkpt lat="46.21486" lon="7.43493"><ele>1496.6</ele><time>2019-07-15T16:56:17Z</time></trkpt>
<trkpt lat="46.21497" lon="7.43497"><ele>1497.8</ele><time>2019-07-15T16:56:23Z</time></trkpt>
<trkpt lat="46.21504" lon="7.43503"><ele>1498.8</ele><time>2019-07-15T16:56:27Z</time></trkpt>
<trkpt lat="46.21517" lon="7.43523"><ele>1500.4</ele><time>2019-07-15T16:56:37Z</time></trkpt>
<trkpt lat="46.21525" lon="7.43536"><ele>1501.6</ele><time>2019-07-15T16:56:43Z</time></trkpt>
<trkpt lat="46.21535" lon="7.4355"><ele>1502.6</ele><time>2019-07-15T16:56:51Z</time></trkpt>
<trkpt lat="46.21539" lon="7.43553"><ele>1502.8</ele><time>2019-07-15T16:56:53Z</time></trkpt>
<trkpt lat="46.21545" lon="7.43557"><ele>1503.4</ele><time>2019-07-15T16:56:57Z</time></trkpt>
<trkpt lat="46.21564" lon="7.43565"><ele>1503.8</ele><time>2019-07-15T16:57:07Z</time></trkpt>
<trkpt lat="46.21578" lon="7.43566"><ele>1504.4</ele><time>2019-07-15T16:57:14Z</time></trkpt>
<trkpt lat="46.21597" lon="7.43567"><ele>1505.2</ele><time>2019-07-15T16:57:24Z</time></trkpt>
<trkpt lat="46.21616" lon="7.4357"><ele>1506.4</ele><time>2019-07-15T16:57:34Z</time></trkpt>
<trkpt lat="46.21635" lon="7.43573"><ele>1507.6</ele><time>2019-07-15T16:57:43Z</time></trkpt>
<trkpt lat="46.21652" lon="7.43576"><ele>1509.2</ele><time>2019-07-15T16:57:52Z</time></trkpt>
<trkpt lat="46.21654" lon="7.43577"><ele>1509.2</ele><time>2019-07-15T16:57:53Z</time></trkpt>
<trkpt lat="46.21673" lon="7.43582"><ele>1511.8</ele><time>2019-07-15T16:58:03Z</time></trkpt>
<trkpt lat="46.21691" lon="7.43585"><ele>1513.8</ele><time>2019-07-15T16:58:12Z</time></trkpt>
<trkpt lat="46.21717" lon="7.43587"><ele>1516.4</ele><time>2019-07-15T16:58:25Z</time></trkpt>
<trkpt lat="46.21733" lon="7.43586"><ele>1518.2</ele><time>2019-07-15T16:58:33Z</time></trkpt>
<trkpt lat="46.21739" lon="7.43585"><ele>1518.8</ele><time>2019-07-15T16:58:36Z</time></trkpt>
<trkpt lat="46.21751" lon="7.43582"><ele>1519.8</ele><time>2019-07-15T16:58:42Z</time></trkpt>
<trkpt lat="46.21768" lon="7.43573"><ele>1521.4</ele><time>2019-07-15T16:58:51Z</time></trkpt>
<trkpt lat="46.2178" lon="7.43565"><ele>1522.6</ele><time>2019-07-15T16:58:57Z</time></trkpt>
<trkpt lat="46.21785" lon="7.43562"><ele>1523.4</ele><time>2019-07-15T16:59:00Z</time></trkpt>
<trkpt lat="46.21802" lon="7.43551"><ele>1525.6</ele><time>2019-07-15T16:59:10Z</time></trkpt>
<trkpt lat="46.2182" lon="7.43539"><ele>1527.8</ele><time>2019-07-15T16:59:20Z</time></trkpt>
<trkpt lat="46.21823" lon="7.43537"><ele>1528</ele><time>2019-07-15T16:59:22Z</time></trkpt>
<trkpt lat="46.21826" lon="7.43535"><ele>1528.4</ele><time>2019-07-15T16:59:24Z</time></trkpt>
<trkpt lat="46.21836" lon="7.4353"><ele>1529.4</ele><time>2019-07-15T16:59:31Z</time></trkpt>
<trkpt lat="46.21824" lon="7.43513"><ele>1524.2</ele><time>2019-07-15T16:59:39Z</time></trkpt>
<trkpt lat="46.21808" lon="7.43516"><ele>1520.4</ele><time>2019-07-15T16:59:43Z</time></trkpt>
<trkpt lat="46.2179" lon="7.43523"><ele>1516.8</ele><time>2019-07-15T16:59:47Z</time></trkpt>
<trkpt lat="46.21786" lon="7.43525"><ele>1515.8</ele><time>2019-07-15T16:59:48Z</time></trkpt>
<trkpt lat="46.21778" lon="7.43529"><ele>1514</ele><time>2019-07-15T16:59:50Z</time></trkpt>
<trkpt lat="46.21774" lon="7.43531"><ele>1513</ele><time>2019-07-15T16:59:51Z</time></trkpt>
<trkpt lat="46.21764" lon="7.43536"><ele>1510</ele><time>2019-07-15T16:59:54Z</time></trkpt>
<trkpt lat="46.21752" lon="7.43534"><ele>1506.8</ele><time>2019-07-15T16:59:57Z</time></trkpt>
<trkpt lat="46.21748" lon="7.43534"><ele>1505.8</ele><time>2019-07-15T16:59:58Z</time></trkpt>
<trkpt lat="46.21744" lon="7.43534"><ele>1505.2</ele><time>2019-07-15T16:59:59Z</time></trkpt>
<trkpt lat="46.21727" lon="7.4353"><ele>1501</ele><time>2019-07-15T17:00:03Z</time></trkpt>
<trkpt lat="46.21708" lon="7.43528"><ele>1496.8</ele><time>2019-07-15T17:00:07Z</time></trkpt>
<trkpt lat="46.21701" lon="7.43526"><ele>1495.2</ele><time>2019-07-15T17:00:09Z</time></trkpt>
<trkpt lat="46.2169" lon="7.43517"><ele>1493.4</ele><time>2019-07-15T17:00:13Z</time></trkpt>
<trkpt lat="46.21685" lon="7.43514"><ele>1492.4</ele><time>2019-07-15T17:00:16Z</time></trkpt>
<trkpt lat="46.21677" lon="7.43502"><ele>1488.6</ele><time>2019-07-15T17:00:23Z</time></trkpt>
<trkpt lat="46.21673" lon="7.43496"><ele>1486.6</ele><time>2019-07-15T17:00:26Z</time></trkpt>
<trkpt lat="46.21671" lon="7.43494"><ele>1485.8</ele><time>2019-07-15T17:00:27Z</time></trkpt>
<trkpt lat="46.21658" lon="7.43475"><ele>1479.4</ele><time>2019-07-15T17:00:35Z</time></trkpt>
<trkpt lat="46.21642" lon="7.43459"><ele>1472.8</ele><time>2019-07-15T17:00:42Z</time></trkpt>
<trkpt lat="46.21625" lon="7.4345"><ele>1466.6</ele><time>2019-07-15T17:00:48Z</time></trkpt>
<trkpt lat="46.21614" lon="7.43447"><ele>1462.2</ele><time>2019-07-15T17:00:53Z</time></trkpt>
<trkpt lat="46.21608" lon="7.43444"><ele>1458.2</ele><time>2019-07-15T17:01:01Z</time></trkpt>
<trkpt lat="46.21594" lon="7.43427"><ele>1458.2</ele><time>2019-07-15T17:01:14Z</time></trkpt>
<trkpt lat="46.2159" lon="7.43421"><ele>1457.2</ele><time>2019-07-15T17:01:19Z</time></trkpt>
<trkpt lat="46.21589" lon="7.43421"><ele>1457</ele><time>2019-07-15T17:01:21Z</time></trkpt>
<trkpt lat="46.21578" lon="7.43404"><ele>1455.4</ele><time>2019-07-15T17:01:49Z</time></trkpt>
<trkpt lat="46.21572" lon="7.43391"><ele>1452.6</ele><time>2019-07-15T17:01:53Z</time></trkpt>
<trkpt lat="46.21559" lon="7.43368"><ele>1448.2</ele><time>2019-07-15T17:01:59Z</time></trkpt>
<trkpt lat="46.21546" lon="7.43349"><ele>1444.2</ele><time>2019-07-15T17:02:07Z</time></trkpt>
<trkpt lat="46.21538" lon="7.43337"><ele>1440.8</ele><time>2019-07-15T17:02:13Z</time></trkpt>
<trkpt lat="46.21529" lon="7.4333"><ele>1439</ele><time>2019-07-15T17:02:17Z</time></trkpt>
<trkpt lat="46.21513" lon="7.43313"><ele>1435.6</ele><time>2019-07-15T17:02:25Z</time></trkpt>
<trkpt lat="46.21496" lon="7.43296"><ele>1429.6</ele><time>2019-07-15T17:02:31Z</time></trkpt>
<trkpt lat="46.21481" lon="7.43277"><ele>1424.2</ele><time>2019-07-15T17:02:36Z</time></trkpt>
<trkpt lat="46.21471" lon="7.43261"><ele>1421</ele><time>2019-07-15T17:02:41Z</time></trkpt>
<trkpt lat="46.21459" lon="7.43241"><ele>1414.6</ele><time>2019-07-15T17:02:49Z</time></trkpt>
<trkpt lat="46.21458" lon="7.43238"><ele>1413.8</ele><time>2019-07-15T17:02:50Z</time></trkpt>
<trkpt lat="46.2145" lon="7.43214"><ele>1407.8</ele><time>2019-07-15T17:02:57Z</time></trkpt>
<trkpt lat="46.21449" lon="7.43201"><ele>1403.8</ele><time>2019-07-15T17:03:01Z</time></trkpt>
<trkpt lat="46.21444" lon="7.43172"><ele>1399.2</ele><time>2019-07-15T17:03:09Z</time></trkpt>
<trkpt lat="46.21442" lon="7.4316"><ele>1396.2</ele><time>2019-07-15T17:03:13Z</time></trkpt>
<trkpt lat="46.21444" lon="7.43132"><ele>1388.4</ele><time>2019-07-15T17:03:20Z</time></trkpt>
<trkpt lat="46.2144" lon="7.43104"><ele>1381.8</ele><time>2019-07-15T17:03:29Z</time></trkpt>
<trkpt lat="46.21435" lon="7.4309"><ele>1379</ele><time>2019-07-15T17:03:32Z</time></trkpt>
<trkpt lat="46.21441" lon="7.43092"><ele>1376.6</ele><time>2019-07-15T17:03:47Z</time></trkpt>
<trkpt lat="46.21437" lon="7.43064"><ele>1371.4</ele><time>2019-07-15T17:03:56Z</time></trkpt>
<trkpt lat="46.21433" lon="7.43039"><ele>1365.8</ele><time>2019-07-15T17:04:04Z</time></trkpt>
<trkpt lat="46.21433" lon="7.43037"><ele>1365.2</ele><time>2019-07-15T17:04:05Z</time></trkpt>
<trkpt lat="46.21425" lon="7.43016"><ele>1358.4</ele><time>2019-07-15T17:04:14Z</time></trkpt>
<trkpt lat="46.21422" lon="7.43012"><ele>1356</ele><time>2019-07-15T17:04:19Z</time></trkpt>
<trkpt lat="46.21433" lon="7.4301"><ele>1354.4</ele><time>2019-07-15T17:04:27Z</time></trkpt>
<trkpt lat="46.21452" lon="7.43007"><ele>1349</ele><time>2019-07-15T17:04:32Z</time></trkpt>
<trkpt lat="46.2147" lon="7.43011"><ele>1346.6</ele><time>2019-07-15T17:04:35Z</time></trkpt>
<trkpt lat="46.21493" lon="7.43021"><ele>1343.6</ele><time>2019-07-15T17:04:38Z</time></trkpt>
<trkpt lat="46.21506" lon="7.43027"><ele>1341.8</ele><time>2019-07-15T17:04:40Z</time></trkpt>
<trkpt lat="46.21505" lon="7.43006"><ele>1340.2</ele><time>2019-07-15T17:04:44Z</time></trkpt>
<trkpt lat="46.21494" lon="7.43001"><ele>1339.2</ele><time>2019-07-15T17:04:46Z</time></trkpt>
<trkpt lat="46.21488" lon="7.42997"><ele>1338.8</ele><time>2019-07-15T17:04:47Z</time></trkpt>
<trkpt lat="46.21487" lon="7.42984"><ele>1337.6</ele><time>2019-07-15T17:04:51Z</time></trkpt>
<trkpt lat="46.2149" lon="7.42986"><ele>1337.2</ele><time>2019-07-15T17:04:52Z</time></trkpt>
<trkpt lat="46.21499" lon="7.4299"><ele>1336</ele><time>2019-07-15T17:04:54Z</time></trkpt>
<trkpt lat="46.21515" lon="7.42996"><ele>1333.4</ele><time>2019-07-15T17:04:57Z</time></trkpt>
<trkpt lat="46.21521" lon="7.42999"><ele>1332.4</ele><time>2019-07-15T17:04:58Z</time></trkpt>
<trkpt lat="46.21527" lon="7.43002"><ele>1331.4</ele><time>2019-07-15T17:04:59Z</time></trkpt>
<trkpt lat="46.21545" lon="7.43008"><ele>1329.2</ele><time>2019-07-15T17:05:02Z</time></trkpt>
<trkpt lat="46.2155" lon="7.4301"><ele>1328.6</ele><time>2019-07-15T17:05:03Z</time></trkpt>
<trkpt lat="46.21556" lon="7.43013"><ele>1327.8</ele><time>2019-07-15T17:05:04Z</time></trkpt>
<trkpt lat="46.21574" lon="7.43025"><ele>1325.8</ele><time>2019-07-15T17:05:07Z</time></trkpt>
<trkpt lat="46.21593" lon="7.43041"><ele>1323.6</ele><time>2019-07-15T17:05:10Z</time></trkpt>
<trkpt lat="46.21614" lon="7.43054"><ele>1322.2</ele><time>2019-07-15T17:05:13Z</time></trkpt>
<trkpt lat="46.21621" lon="7.43056"><ele>1322</ele><time>2019-07-15T17:05:14Z</time></trkpt>
<trkpt lat="46.21642" lon="7.43056"><ele>1322</ele><time>2019-07-15T17:05:17Z</time></trkpt>
<trkpt lat="46.21664" lon="7.43051"><ele>1320</ele><time>2019-07-15T17:05:21Z</time></trkpt>
<trkpt lat="46.21681" lon="7.43039"><ele>1321.8</ele><time>2019-07-15T17:05:28Z</time></trkpt>
<trkpt lat="46.21696" lon="7.43043"><ele>1322.6</ele><time>2019-07-15T17:05:33Z</time></trkpt>
<trkpt lat="46.21717" lon="7.43044"><ele>1322.4</ele><time>2019-07-15T17:05:37Z</time></trkpt>
<trkpt lat="46.21737" lon="7.43044"><ele>1321.8</ele><time>2019-07-15T17:05:43Z</time></trkpt>
<trkpt lat="46.21752" lon="7.43045"><ele>1321.6</ele><time>2019-07-15T17:05:48Z</time></trkpt>
<trkpt lat="46.21768" lon="7.43042"><ele>1321.6</ele><time>2019-07-15T17:05:52Z</time></trkpt>
<trkpt lat="46.21781" lon="7.4304"><ele>1322.2</ele><time>2019-07-15T17:05:55Z</time></trkpt>
<trkpt lat="46.21793" lon="7.43042"><ele>1322.2</ele><time>2019-07-15T17:05:59Z</time></trkpt>
<trkpt lat="46.21807" lon="7.43045"><ele>1321</ele><time>2019-07-15T17:06:03Z</time></trkpt>
<trkpt lat="46.21826" lon="7.43041"><ele>1319.8</ele><time>2019-07-15T17:06:09Z</time></trkpt>
<trkpt lat="46.21844" lon="7.43034"><ele>1318</ele><time>2019-07-15T17:06:13Z</time></trkpt>
<trkpt lat="46.21865" lon="7.43033"><ele>1317.8</ele><time>2019-07-15T17:06:17Z</time></trkpt>
<trkpt lat="46.2187" lon="7.43033"><ele>1318</ele><time>2019-07-15T17:06:18Z</time></trkpt>
<trkpt lat="46.2188" lon="7.43033"><ele>1317.2</ele><time>2019-07-15T17:06:20Z</time></trkpt>
<trkpt lat="46.21897" lon="7.43032"><ele>1318.6</ele><time>2019-07-15T17:06:24Z</time></trkpt>
<trkpt lat="46.21906" lon="7.43027"><ele>1317.8</ele><time>2019-07-15T17:06:29Z</time></trkpt>
<trkpt lat="46.21921" lon="7.43014"><ele>1317.6</ele><time>2019-07-15T17:06:38Z</time></trkpt>
<trkpt lat="46.21929" lon="7.43008"><ele>1317.6</ele><time>2019-07-15T17:06:43Z</time></trkpt>
<trkpt lat="46.21935" lon="7.43004"><ele>1317.2</ele><time>2019-07-15T17:06:46Z</time></trkpt>
<trkpt lat="46.21941" lon="7.43"><ele>1317.4</ele><time>2019-07-15T17:06:49Z</time></trkpt>
<trkpt lat="46.21954" lon="7.42993"><ele>1318</ele><time>2019-07-15T17:06:55Z</time></trkpt>
<trkpt lat="46.21971" lon="7.4298"><ele>1318.2</ele><time>2019-07-15T17:07:02Z</time></trkpt>
<trkpt lat="46.21979" lon="7.42968"><ele>1319.8</ele><time>2019-07-15T17:07:08Z</time></trkpt>
<trkpt lat="46.21983" lon="7.42962"><ele>1321</ele><time>2019-07-15T17:07:12Z</time></trkpt>
<trkpt lat="46.21991" lon="7.42949"><ele>1321</ele><time>2019-07-15T17:07:20Z</time></trkpt>
<trkpt lat="46.22005" lon="7.42935"><ele>1323</ele><time>2019-07-15T17:07:31Z</time></trkpt>
<trkpt lat="46.22007" lon="7.42934"><ele>1323.2</ele><time>2019-07-15T17:07:32Z</time></trkpt>
<trkpt lat="46.22008" lon="7.42932"><ele>1323.6</ele><time>2019-07-15T17:07:33Z</time></trkpt>
<trkpt lat="46.22016" lon="7.42924"><ele>1325</ele><time>2019-07-15T17:07:39Z</time></trkpt>
<trkpt lat="46.22018" lon="7.42922"><ele>1325.4</ele><time>2019-07-15T17:07:41Z</time></trkpt>
<trkpt lat="46.22022" lon="7.42921"><ele>1325.4</ele><time>2019-07-15T17:07:43Z</time></trkpt>
<trkpt lat="46.22026" lon="7.4292"><ele>1325.2</ele><time>2019-07-15T17:07:45Z</time></trkpt>
<trkpt lat="46.22047" lon="7.42921"><ele>1325.8</ele><time>2019-07-15T17:07:53Z</time></trkpt>
<trkpt lat="46.22057" lon="7.42927"><ele>1325.4</ele><time>2019-07-15T17:07:56Z</time></trkpt>
<trkpt lat="46.22061" lon="7.42929"><ele>1325.4</ele><time>2019-07-15T17:07:57Z</time></trkpt>
<trkpt lat="46.2208" lon="7.42931"><ele>1325.4</ele><time>2019-07-15T17:08:01Z</time></trkpt>
<trkpt lat="46.221" lon="7.42931"><ele>1325</ele><time>2019-07-15T17:08:06Z</time></trkpt>
<trkpt lat="46.22119" lon="7.42924"><ele>1323.6</ele><time>2019-07-15T17:08:11Z</time></trkpt>
<trkpt lat="46.22137" lon="7.42918"><ele>1322.6</ele><time>2019-07-15T17:08:16Z</time></trkpt>
<trkpt lat="46.22156" lon="7.42921"><ele>1325</ele><time>2019-07-15T17:08:24Z</time></trkpt>
<trkpt lat="46.22177" lon="7.42922"><ele>1328.6</ele><time>2019-07-15T17:08:34Z</time></trkpt>
<trkpt lat="46.22197" lon="7.42921"><ele>1328.4</ele><time>2019-07-15T17:08:42Z</time></trkpt>
<trkpt lat="46.22214" lon="7.42908"><ele>1328.6</ele><time>2019-07-15T17:08:50Z</time></trkpt>
<trkpt lat="46.22231" lon="7.42897"><ele>1328.4</ele><time>2019-07-15T17:08:57Z</time></trkpt>
<trkpt lat="46.22251" lon="7.42889"><ele>1328.6</ele><time>2019-07-15T17:09:05Z</time></trkpt>
<trkpt lat="46.22268" lon="7.42881"><ele>1329.4</ele><time>2019-07-15T17:09:12Z</time></trkpt>
<trkpt lat="46.22272" lon="7.42877"><ele>1329.6</ele><time>2019-07-15T17:09:14Z</time></trkpt>
<trkpt lat="46.2228" lon="7.42869"><ele>1329.8</ele><time>2019-07-15T17:09:18Z</time></trkpt>
<trkpt lat="46.22306" lon="7.42859"><ele>1329</ele><time>2019-07-15T17:09:30Z</time></trkpt>
<trkpt lat="46.22323" lon="7.42848"><ele>1327.8</ele><time>2019-07-15T17:09:42Z</time></trkpt>
<trkpt lat="46.22336" lon="7.42841"><ele>1327.4</ele><time>2019-07-15T17:09:48Z</time></trkpt>
<trkpt lat="46.22339" lon="7.42839"><ele>1327.4</ele><time>2019-07-15T17:09:49Z</time></trkpt>
<trkpt lat="46.22347" lon="7.42835"><ele>1327.2</ele><time>2019-07-15T17:09:52Z</time></trkpt>
<trkpt lat="46.22355" lon="7.4283"><ele>1326.6</ele><time>2019-07-15T17:09:55Z</time></trkpt>
<trkpt lat="46.22371" lon="7.42816"><ele>1326</ele><time>2019-07-15T17:10:01Z</time></trkpt>
<trkpt lat="46.2238" lon="7.42806"><ele>1325.8</ele><time>2019-07-15T17:10:05Z</time></trkpt>
<trkpt lat="46.22389" lon="7.42799"><ele>1325.4</ele><time>2019-07-15T17:10:10Z</time></trkpt>
<trkpt lat="46.22408" lon="7.42786"><ele>1324.4</ele><time>2019-07-15T17:10:18Z</time></trkpt>
<trkpt lat="46.22427" lon="7.42786"><ele>1323</ele><time>2019-07-15T17:10:23Z</time></trkpt>
<trkpt lat="46.22439" lon="7.42793"><ele>1322.2</ele><time>2019-07-15T17:10:26Z</time></trkpt>
<trkpt lat="46.22443" lon="7.42795"><ele>1321.8</ele><time>2019-07-15T17:10:27Z</time></trkpt>
<trkpt lat="46.22448" lon="7.42796"><ele>1321.8</ele><time>2019-07-15T17:10:28Z</time></trkpt>
<trkpt lat="46.22468" lon="7.42795"><ele>1321</ele><time>2019-07-15T17:10:33Z</time></trkpt>
<trkpt lat="46.2248" lon="7.42793"><ele>1320.4</ele><time>2019-07-15T17:10:39Z</time></trkpt>
<trkpt lat="46.22496" lon="7.42779"><ele>1319.6</ele><time>2019-07-15T17:10:45Z</time></trkpt>
<trkpt lat="46.22517" lon="7.42769"><ele>1318.2</ele><time>2019-07-15T17:10:50Z</time></trkpt>
<trkpt lat="46.22535" lon="7.42776"><ele>1317</ele><time>2019-07-15T17:10:53Z</time></trkpt>
<trkpt lat="46.22554" lon="7.42784"><ele>1318</ele><time>2019-07-15T17:10:56Z</time></trkpt>
<trkpt lat="46.2256" lon="7.42785"><ele>1318.4</ele><time>2019-07-15T17:10:57Z</time></trkpt>
<trkpt lat="46.22576" lon="7.42788"><ele>1320.2</ele><time>2019-07-15T17:11:00Z</time></trkpt>
<trkpt lat="46.22593" lon="7.42802"><ele>1323.2</ele><time>2019-07-15T17:11:06Z</time></trkpt>
<trkpt lat="46.22606" lon="7.42822"><ele>1324.6</ele><time>2019-07-15T17:11:12Z</time></trkpt>
<trkpt lat="46.22618" lon="7.42839"><ele>1326.2</ele><time>2019-07-15T17:11:18Z</time></trkpt>
<trkpt lat="46.22625" lon="7.42856"><ele>1327.6</ele><time>2019-07-15T17:11:24Z</time></trkpt>
<trkpt lat="46.22623" lon="7.42863"><ele>1328.2</ele><time>2019-07-15T17:11:27Z</time></trkpt>
<trkpt lat="46.22618" lon="7.42862"><ele>1328.8</ele><time>2019-07-15T17:11:30Z</time></trkpt>
<trkpt lat="46.2261" lon="7.42857"><ele>1330</ele><time>2019-07-15T17:11:35Z</time></trkpt>
<trkpt lat="46.22601" lon="7.42851"><ele>1330.8</ele><time>2019-07-15T17:11:40Z</time></trkpt>
<trkpt lat="46.22595" lon="7.42848"><ele>1331.4</ele><time>2019-07-15T17:11:44Z</time></trkpt>
<trkpt lat="46.22588" lon="7.42847"><ele>1332.2</ele><time>2019-07-15T17:11:48Z</time></trkpt>
<trkpt lat="46.22569" lon="7.42855"><ele>1335</ele><time>2019-07-15T17:11:59Z</time></trkpt>
<trkpt lat="46.22556" lon="7.42863"><ele>1336.8</ele><time>2019-07-15T17:12:07Z</time></trkpt>
<trkpt lat="46.22538" lon="7.42873"><ele>1339.4</ele><time>2019-07-15T17:12:17Z</time></trkpt>
<trkpt lat="46.2252" lon="7.4287"><ele>1341.8</ele><time>2019-07-15T17:12:26Z</time></trkpt>
<trkpt lat="46.22518" lon="7.4287"><ele>1342.2</ele><time>2019-07-15T17:12:27Z</time></trkpt>
<trkpt lat="46.22514" lon="7.42869"><ele>1342.6</ele><time>2019-07-15T17:12:29Z</time></trkpt>
<trkpt lat="46.22507" lon="7.4287"><ele>1343.8</ele><time>2019-07-15T17:12:33Z</time></trkpt>
<trkpt lat="46.22494" lon="7.42877"><ele>1345.8</ele><time>2019-07-15T17:12:40Z</time></trkpt>
<trkpt lat="46.22488" lon="7.4288"><ele>1347</ele><time>2019-07-15T17:12:44Z</time></trkpt>
<trkpt lat="46.2248" lon="7.42882"><ele>1348</ele><time>2019-07-15T17:12:49Z</time></trkpt>
<trkpt lat="46.22478" lon="7.42883"><ele>1348.2</ele><time>2019-07-15T17:12:50Z</time></trkpt>
<trkpt lat="46.22462" lon="7.42887"><ele>1351</ele><time>2019-07-15T17:13:00Z</time></trkpt>
<trkpt lat="46.2246" lon="7.42886"><ele>1351.2</ele><time>2019-07-15T17:13:01Z</time></trkpt>
<trkpt lat="46.22441" lon="7.42887"><ele>1353.8</ele><time>2019-07-15T17:13:12Z</time></trkpt>
<trkpt lat="46.22423" lon="7.42884"><ele>1355.8</ele><time>2019-07-15T17:13:22Z</time></trkpt>
<trkpt lat="46.22405" lon="7.42882"><ele>1358</ele><time>2019-07-15T17:13:33Z</time></trkpt>
<trkpt lat="46.22402" lon="7.42885"><ele>1358.6</ele><time>2019-07-15T17:13:36Z</time></trkpt>
<trkpt lat="46.22401" lon="7.42889"><ele>1358.8</ele><time>2019-07-15T17:13:38Z</time></trkpt>
<trkpt lat="46.22406" lon="7.42898"><ele>1360.2</ele><time>2019-07-15T17:13:43Z</time></trkpt>
<trkpt lat="46.22408" lon="7.42899"><ele>1360.4</ele><time>2019-07-15T17:13:44Z</time></trkpt>
<trkpt lat="46.22419" lon="7.42906"><ele>1361.6</ele><time>2019-07-15T17:13:50Z</time></trkpt>
<trkpt lat="46.22423" lon="7.4291"><ele>1362.4</ele><time>2019-07-15T17:13:53Z</time></trkpt>
<trkpt lat="46.2244" lon="7.42925"><ele>1364.4</ele><time>2019-07-15T17:14:04Z</time></trkpt>
<trkpt lat="46.22448" lon="7.42932"><ele>1365.2</ele><time>2019-07-15T17:14:09Z</time></trkpt>
<trkpt lat="46.22461" lon="7.42949"><ele>1366.6</ele><time>2019-07-15T17:14:19Z</time></trkpt>
<trkpt lat="46.22463" lon="7.42954"><ele>1367</ele><time>2019-07-15T17:14:21Z</time></trkpt>
<trkpt lat="46.22465" lon="7.42958"><ele>1367.6</ele><time>2019-07-15T17:14:23Z</time></trkpt>
<trkpt lat="46.22469" lon="7.42964"><ele>1368.2</ele><time>2019-07-15T17:14:26Z</time></trkpt>
<trkpt lat="46.22472" lon="7.42974"><ele>1369.4</ele><time>2019-07-15T17:14:30Z</time></trkpt>
<trkpt lat="46.22479" lon="7.4299"><ele>1370.8</ele><time>2019-07-15T17:14:37Z</time></trkpt>
<trkpt lat="46.22483" lon="7.42999"><ele>1371.6</ele><time>2019-07-15T17:14:41Z</time></trkpt>
<trkpt lat="46.22487" lon="7.43008"><ele>1373</ele><time>2019-07-15T17:14:45Z</time></trkpt>
<trkpt lat="46.2249" lon="7.43012"><ele>1373.4</ele><time>2019-07-15T17:14:47Z</time></trkpt>
<trkpt lat="46.22503" lon="7.4303"><ele>1376.2</ele><time>2019-07-15T17:14:57Z</time></trkpt>
<trkpt lat="46.22508" lon="7.4304"><ele>1377.4</ele><time>2019-07-15T17:15:02Z</time></trkpt>
<trkpt lat="46.22518" lon="7.43056"><ele>1380</ele><time>2019-07-15T17:15:10Z</time></trkpt>
<trkpt lat="46.2253" lon="7.43068"><ele>1382.8</ele><time>2019-07-15T17:15:18Z</time></trkpt>
<trkpt lat="46.22549" lon="7.43069"><ele>1384.6</ele><time>2019-07-15T17:15:27Z</time></trkpt>
<trkpt lat="46.22568" lon="7.43068"><ele>1385.6</ele><time>2019-07-15T17:15:35Z</time></trkpt>
<trkpt lat="46.22584" lon="7.43081"><ele>1384.4</ele><time>2019-07-15T17:15:42Z</time></trkpt>
<trkpt lat="46.22597" lon="7.43102"><ele>1382.4</ele><time>2019-07-15T17:15:46Z</time></trkpt>
<trkpt lat="46.22601" lon="7.43108"><ele>1382</ele><time>2019-07-15T17:15:47Z</time></trkpt>
<trkpt lat="46.22612" lon="7.4314"><ele>1380.2</ele><time>2019-07-15T17:15:51Z</time></trkpt>
<trkpt lat="46.22621" lon="7.43167"><ele>1378.4</ele><time>2019-07-15T17:15:54Z</time></trkpt>
<trkpt lat="46.22634" lon="7.43194"><ele>1376.8</ele><time>2019-07-15T17:15:57Z</time></trkpt>
<trkpt lat="46.22648" lon="7.43224"><ele>1375.8</ele><time>2019-07-15T17:16:00Z</time></trkpt>
<trkpt lat="46.2266" lon="7.43255"><ele>1373.8</ele><time>2019-07-15T17:16:03Z</time></trkpt>
<trkpt lat="46.22673" lon="7.43287"><ele>1372</ele><time>2019-07-15T17:16:06Z</time></trkpt>
<trkpt lat="46.22676" lon="7.43298"><ele>1372</ele><time>2019-07-15T17:16:07Z</time></trkpt>
<trkpt lat="46.22684" lon="7.43329"><ele>1373.2</ele><time>2019-07-15T17:16:10Z</time></trkpt>
<trkpt lat="46.22692" lon="7.43353"><ele>1373.2</ele><time>2019-07-15T17:16:13Z</time></trkpt>
<trkpt lat="46.227" lon="7.43372"><ele>1373.4</ele><time>2019-07-15T17:16:16Z</time></trkpt>
<trkpt lat="46.22701" lon="7.43399"><ele>1374</ele><time>2019-07-15T17:16:20Z</time></trkpt>
<trkpt lat="46.22699" lon="7.43412"><ele>1374.2</ele><time>2019-07-15T17:16:22Z</time></trkpt>
<trkpt lat="46.22697" lon="7.43418"><ele>1374.4</ele><time>2019-07-15T17:16:23Z</time></trkpt>
<trkpt lat="46.2269" lon="7.43434"><ele>1374</ele><time>2019-07-15T17:16:26Z</time></trkpt>
<trkpt lat="46.22688" lon="7.43458"><ele>1372.6</ele><time>2019-07-15T17:16:30Z</time></trkpt>
<trkpt lat="46.22702" lon="7.43476"><ele>1373.2</ele><time>2019-07-15T17:16:34Z</time></trkpt>
<trkpt lat="46.22705" lon="7.4348"><ele>1373.4</ele><time>2019-07-15T17:16:35Z</time></trkpt>
<trkpt lat="46.2271" lon="7.43489"><ele>1374</ele><time>2019-07-15T17:16:37Z</time></trkpt>
<trkpt lat="46.22712" lon="7.43494"><ele>1374</ele><time>2019-07-15T17:16:38Z</time></trkpt>
<trkpt lat="46.22716" lon="7.4351"><ele>1373.8</ele><time>2019-07-15T17:16:41Z</time></trkpt>
<trkpt lat="46.22719" lon="7.43538"><ele>1375.6</ele><time>2019-07-15T17:16:47Z</time></trkpt>
<trkpt lat="46.22718" lon="7.43547"><ele>1375.8</ele><time>2019-07-15T17:16:49Z</time></trkpt>
<trkpt lat="46.22719" lon="7.43561"><ele>1375.6</ele><time>2019-07-15T17:16:52Z</time></trkpt>
<trkpt lat="46.22726" lon="7.4359"><ele>1377.6</ele><time>2019-07-15T17:16:58Z</time></trkpt>
<trkpt lat="46.22727" lon="7.43599"><ele>1377.8</ele><time>2019-07-15T17:17:00Z</time></trkpt>
<trkpt lat="46.22728" lon="7.43625"><ele>1378.4</ele><time>2019-07-15T17:17:06Z</time></trkpt>
<trkpt lat="46.22727" lon="7.43643"><ele>1379.6</ele><time>2019-07-15T17:17:10Z</time></trkpt>
<trkpt lat="46.22738" lon="7.43686"><ele>1380.8</ele><time>2019-07-15T17:17:20Z</time></trkpt>
<trkpt lat="46.22749" lon="7.4371"><ele>1382.2</ele><time>2019-07-15T17:17:26Z</time></trkpt>
<trkpt lat="46.22754" lon="7.43737"><ele>1382.6</ele><time>2019-07-15T17:17:31Z</time></trkpt>
<trkpt lat="46.22753" lon="7.43766"><ele>1383</ele><time>2019-07-15T17:17:36Z</time></trkpt>
<trkpt lat="46.22748" lon="7.43793"><ele>1382.2</ele><time>2019-07-15T17:17:40Z</time></trkpt>
<trkpt lat="46.22747" lon="7.43825"><ele>1382</ele><time>2019-07-15T17:17:44Z</time></trkpt>
<trkpt lat="46.22749" lon="7.43857"><ele>1382.6</ele><time>2019-07-15T17:17:48Z</time></trkpt>
<trkpt lat="46.22752" lon="7.43886"><ele>1383</ele><time>2019-07-15T17:17:52Z</time></trkpt>
<trkpt lat="46.22758" lon="7.43912"><ele>1384</ele><time>2019-07-15T17:17:56Z</time></trkpt>
<trkpt lat="46.22761" lon="7.4393"><ele>1385</ele><time>2019-07-15T17:17:59Z</time></trkpt>
<trkpt lat="46.22763" lon="7.43956"><ele>1385.8</ele><time>2019-07-15T17:18:03Z</time></trkpt>
<trkpt lat="46.22764" lon="7.43983"><ele>1385.8</ele><time>2019-07-15T17:18:07Z</time></trkpt>
<trkpt lat="46.22767" lon="7.44011"><ele>1386</ele><time>2019-07-15T17:18:11Z</time></trkpt>
<trkpt lat="46.22769" lon="7.44039"><ele>1386.4</ele><time>2019-07-15T17:18:15Z</time></trkpt>
<trkpt lat="46.22769" lon="7.44046"><ele>1386.4</ele><time>2019-07-15T17:18:16Z</time></trkpt>
<trkpt lat="46.22768" lon="7.44065"><ele>1386.4</ele><time>2019-07-15T17:18:19Z</time></trkpt>
<trkpt lat="46.22766" lon="7.44093"><ele>1386</ele><time>2019-07-15T17:18:25Z</time></trkpt>
<trkpt lat="46.22767" lon="7.44096"><ele>1386.2</ele><time>2019-07-15T17:18:26Z</time></trkpt>
<trkpt lat="46.22767" lon="7.44111"><ele>1387</ele><time>2019-07-15T17:18:30Z</time></trkpt>
<trkpt lat="46.22766" lon="7.44129"><ele>1387</ele><time>2019-07-15T17:18:35Z</time></trkpt>
<trkpt lat="46.22765" lon="7.44142"><ele>1386.6</ele><time>2019-07-15T17:18:39Z</time></trkpt>
<trkpt lat="46.22766" lon="7.44171"><ele>1387.4</ele><time>2019-07-15T17:18:48Z</time></trkpt>
<trkpt lat="46.22766" lon="7.44177"><ele>1387</ele><time>2019-07-15T17:18:50Z</time></trkpt>
<trkpt lat="46.22767" lon="7.44202"><ele>1388.2</ele><time>2019-07-15T17:18:58Z</time></trkpt>
<trkpt lat="46.22768" lon="7.44219"><ele>1389.2</ele><time>2019-07-15T17:19:03Z</time></trkpt>
<trkpt lat="46.22772" lon="7.44245"><ele>1392.6</ele><time>2019-07-15T17:19:11Z</time></trkpt>
<trkpt lat="46.22776" lon="7.44272"><ele>1396.2</ele><time>2019-07-15T17:19:19Z</time></trkpt>
<trkpt lat="46.22778" lon="7.44299"><ele>1400.4</ele><time>2019-07-15T17:19:26Z</time></trkpt>
<trkpt lat="46.22779" lon="7.44326"><ele>1401.6</ele><time>2019-07-15T17:19:33Z</time></trkpt>
<trkpt lat="46.2278" lon="7.44354"><ele>1403.2</ele><time>2019-07-15T17:19:40Z</time></trkpt>
<trkpt lat="46.22774" lon="7.44391"><ele>1404.4</ele><time>2019-07-15T17:19:50Z</time></trkpt>
<trkpt lat="46.22768" lon="7.44414"><ele>1405.2</ele><time>2019-07-15T17:19:56Z</time></trkpt>
<trkpt lat="46.22762" lon="7.44439"><ele>1403.8</ele><time>2019-07-15T17:20:03Z</time></trkpt>
<trkpt lat="46.22757" lon="7.44464"><ele>1402</ele><time>2019-07-15T17:20:10Z</time></trkpt>
<trkpt lat="46.22755" lon="7.44487"><ele>1401.4</ele><time>2019-07-15T17:20:15Z</time></trkpt>
<trkpt lat="46.22758" lon="7.44515"><ele>1398.2</ele><time>2019-07-15T17:20:20Z</time></trkpt>
<trkpt lat="46.22762" lon="7.44521"><ele>1397.6</ele><time>2019-07-15T17:20:21Z</time></trkpt>
<trkpt lat="46.22771" lon="7.44546"><ele>1394.4</ele><time>2019-07-15T17:20:25Z</time></trkpt>
<trkpt lat="46.22773" lon="7.44565"><ele>1393.2</ele><time>2019-07-15T17:20:27Z</time></trkpt>
<trkpt lat="46.22775" lon="7.44585"><ele>1392</ele><time>2019-07-15T17:20:29Z</time></trkpt>
<trkpt lat="46.22783" lon="7.44624"><ele>1396.8</ele><time>2019-07-15T17:20:36Z</time></trkpt>
<trkpt lat="46.22789" lon="7.4465"><ele>1399</ele><time>2019-07-15T17:20:43Z</time></trkpt>
<trkpt lat="46.22791" lon="7.44669"><ele>1400</ele><time>2019-07-15T17:20:49Z</time></trkpt>
<trkpt lat="46.22793" lon="7.44697"><ele>1402.4</ele><time>2019-07-15T17:20:58Z</time></trkpt>
<trkpt lat="46.22795" lon="7.44717"><ele>1404.8</ele><time>2019-07-15T17:21:05Z</time></trkpt>
<trkpt lat="46.228" lon="7.44744"><ele>1407</ele><time>2019-07-15T17:21:14Z</time></trkpt>
<trkpt lat="46.22805" lon="7.44771"><ele>1409.4</ele><time>2019-07-15T17:21:23Z</time></trkpt>
<trkpt lat="46.22806" lon="7.44774"><ele>1409.8</ele><time>2019-07-15T17:21:24Z</time></trkpt>
<trkpt lat="46.22806" lon="7.44786"><ele>1410.8</ele><time>2019-07-15T17:21:28Z</time></trkpt>
<trkpt lat="46.22798" lon="7.4478"><ele>1412</ele><time>2019-07-15T17:21:34Z</time></trkpt>
<trkpt lat="46.22795" lon="7.4477"><ele>1412.8</ele><time>2019-07-15T17:21:38Z</time></trkpt>
<trkpt lat="46.22785" lon="7.44748"><ele>1415.2</ele><time>2019-07-15T17:21:48Z</time></trkpt>
<trkpt lat="46.22769" lon="7.44722"><ele>1416.2</ele><time>2019-07-15T17:22:02Z</time></trkpt>
<trkpt lat="46.22765" lon="7.44702"><ele>1417.2</ele><time>2019-07-15T17:22:11Z</time></trkpt>
<trkpt lat="46.22758" lon="7.44679"><ele>1419.4</ele><time>2019-07-15T17:22:22Z</time></trkpt>
<trkpt lat="46.22747" lon="7.44658"><ele>1422.8</ele><time>2019-07-15T17:22:34Z</time></trkpt>
<trkpt lat="46.22735" lon="7.44638"><ele>1426</ele><time>2019-07-15T17:22:46Z</time></trkpt>
<trkpt lat="46.22731" lon="7.44615"><ele>1429.2</ele><time>2019-07-15T17:22:57Z</time></trkpt>
<trkpt lat="46.22729" lon="7.44606"><ele>1430</ele><time>2019-07-15T17:23:01Z</time></trkpt>
<trkpt lat="46.22722" lon="7.44575"><ele>1432.6</ele><time>2019-07-15T17:23:15Z</time></trkpt>
<trkpt lat="46.22718" lon="7.4455"><ele>1433.2</ele><time>2019-07-15T17:23:26Z</time></trkpt>
<trkpt lat="46.22712" lon="7.44524"><ele>1434.6</ele><time>2019-07-15T17:23:37Z</time></trkpt>
<trkpt lat="46.22707" lon="7.44505"><ele>1435.6</ele><time>2019-07-15T17:23:45Z</time></trkpt>
<trkpt lat="46.22701" lon="7.4448"><ele>1438.2</ele><time>2019-07-15T17:23:56Z</time></trkpt>
<trkpt lat="46.22693" lon="7.44457"><ele>1440</ele><time>2019-07-15T17:24:08Z</time></trkpt>
<trkpt lat="46.22685" lon="7.44424"><ele>1442</ele><time>2019-07-15T17:24:23Z</time></trkpt>
<trkpt lat="46.2268" lon="7.44399"><ele>1442.8</ele><time>2019-07-15T17:24:34Z</time></trkpt>
<trkpt lat="46.22675" lon="7.44372"><ele>1442.6</ele><time>2019-07-15T17:24:46Z</time></trkpt>
<trkpt lat="46.22671" lon="7.44347"><ele>1444</ele><time>2019-07-15T17:24:57Z</time></trkpt>
<trkpt lat="46.22673" lon="7.4432"><ele>1445.8</ele><time>2019-07-15T17:25:08Z</time></trkpt>
<trkpt lat="46.2267" lon="7.44292"><ele>1448.4</ele><time>2019-07-15T17:25:19Z</time></trkpt>
<trkpt lat="46.22663" lon="7.44258"><ele>1452.8</ele><time>2019-07-15T17:25:34Z</time></trkpt>
<trkpt lat="46.22655" lon="7.44234"><ele>1456</ele><time>2019-07-15T17:25:45Z</time></trkpt>
<trkpt lat="46.22646" lon="7.4421"><ele>1456.6</ele><time>2019-07-15T17:25:56Z</time></trkpt>
<trkpt lat="46.22644" lon="7.44202"><ele>1456.8</ele><time>2019-07-15T17:26:00Z</time></trkpt>
<trkpt lat="46.22636" lon="7.44178"><ele>1458</ele><time>2019-07-15T17:26:11Z</time></trkpt>
<trkpt lat="46.22628" lon="7.44154"><ele>1460.4</ele><time>2019-07-15T17:26:23Z</time></trkpt>
<trkpt lat="46.22621" lon="7.44129"><ele>1462.4</ele><time>2019-07-15T17:26:34Z</time></trkpt>
<trkpt lat="46.22617" lon="7.44084"><ele>1464.6</ele><time>2019-07-15T17:26:53Z</time></trkpt>
<trkpt lat="46.2261" lon="7.4406"><ele>1467</ele><time>2019-07-15T17:27:04Z</time></trkpt>
<trkpt lat="46.22601" lon="7.44037"><ele>1468.8</ele><time>2019-07-15T17:27:15Z</time></trkpt>
<trkpt lat="46.22594" lon="7.44018"><ele>1469</ele><time>2019-07-15T17:27:23Z</time></trkpt>
<trkpt lat="46.22584" lon="7.43994"><ele>1471.2</ele><time>2019-07-15T17:27:34Z</time></trkpt>
<trkpt lat="46.22572" lon="7.43971"><ele>1473.4</ele><time>2019-07-15T17:27:44Z</time></trkpt>
<trkpt lat="46.22561" lon="7.43951"><ele>1476.6</ele><time>2019-07-15T17:27:54Z</time></trkpt>
<trkpt lat="46.22557" lon="7.4394"><ele>1478.4</ele><time>2019-07-15T17:28:00Z</time></trkpt>
<trkpt lat="46.22553" lon="7.4393"><ele>1479.8</ele><time>2019-07-15T17:28:07Z</time></trkpt>
<trkpt lat="46.22553" lon="7.43928"><ele>1479.8</ele><time>2019-07-15T17:28:08Z</time></trkpt>
<trkpt lat="46.22542" lon="7.43908"><ele>1482.6</ele><time>2019-07-15T17:28:23Z</time></trkpt>
<trkpt lat="46.22529" lon="7.43893"><ele>1483.4</ele><time>2019-07-15T17:28:35Z</time></trkpt>
<trkpt lat="46.22518" lon="7.43881"><ele>1485</ele><time>2019-07-15T17:28:45Z</time></trkpt>
<trkpt lat="46.22517" lon="7.43879"><ele>1485.2</ele><time>2019-07-15T17:28:46Z</time></trkpt>
<trkpt lat="46.22514" lon="7.43874"><ele>1486.2</ele><time>2019-07-15T17:28:50Z</time></trkpt>
<trkpt lat="46.22497" lon="7.43855"><ele>1490</ele><time>2019-07-15T17:29:05Z</time></trkpt>
<trkpt lat="46.22493" lon="7.43851"><ele>1490.8</ele><time>2019-07-15T17:29:09Z</time></trkpt>
<trkpt lat="46.22484" lon="7.43837"><ele>1496.2</ele><time>2019-07-15T17:29:18Z</time></trkpt>
<trkpt lat="46.2247" lon="7.43818"><ele>1495.8</ele><time>2019-07-15T17:29:32Z</time></trkpt>
<trkpt lat="46.22457" lon="7.43801"><ele>1496.4</ele><time>2019-07-15T17:29:43Z</time></trkpt>
<trkpt lat="46.22447" lon="7.4377"><ele>1503</ele><time>2019-07-15T17:29:58Z</time></trkpt>
<trkpt lat="46.22444" lon="7.43759"><ele>1507.4</ele><time>2019-07-15T17:30:03Z</time></trkpt>
<trkpt lat="46.22432" lon="7.43739"><ele>1510.6</ele><time>2019-07-15T17:30:15Z</time></trkpt>
<trkpt lat="46.22418" lon="7.4372"><ele>1510.4</ele><time>2019-07-15T17:30:28Z</time></trkpt>
<trkpt lat="46.22407" lon="7.43698"><ele>1511.4</ele><time>2019-07-15T17:30:40Z</time></trkpt>
<trkpt lat="46.22395" lon="7.43677"><ele>1511.4</ele><time>2019-07-15T17:30:53Z</time></trkpt>
<trkpt lat="46.22386" lon="7.43662"><ele>1516.4</ele><time>2019-07-15T17:31:03Z</time></trkpt>
<trkpt lat="46.22383" lon="7.43653"><ele>1518.2</ele><time>2019-07-15T17:31:10Z</time></trkpt>
<trkpt lat="46.22379" lon="7.43649"><ele>1519.4</ele><time>2019-07-15T17:31:15Z</time></trkpt>
<trkpt lat="46.22373" lon="7.43649"><ele>1519.6</ele><time>2019-07-15T17:31:22Z</time></trkpt>
<trkpt lat="46.2237" lon="7.43643"><ele>1520.8</ele><time>2019-07-15T17:31:27Z</time></trkpt>
<trkpt lat="46.22366" lon="7.43638"><ele>1521.4</ele><time>2019-07-15T17:31:31Z</time></trkpt>
<trkpt lat="46.22353" lon="7.43618"><ele>1525.2</ele><time>2019-07-15T17:31:48Z</time></trkpt>
<trkpt lat="46.22351" lon="7.43614"><ele>1525.2</ele><time>2019-07-15T17:31:51Z</time></trkpt>
<trkpt lat="46.22332" lon="7.43599"><ele>1524.6</ele><time>2019-07-15T17:32:05Z</time></trkpt>
<trkpt lat="46.22316" lon="7.43587"><ele>1522.6</ele><time>2019-07-15T17:32:15Z</time></trkpt>
<trkpt lat="46.22299" lon="7.43574"><ele>1524.4</ele><time>2019-07-15T17:32:26Z</time></trkpt>
<trkpt lat="46.22287" lon="7.43563"><ele>1526.8</ele><time>2019-07-15T17:32:34Z</time></trkpt>
<trkpt lat="46.22281" lon="7.43556"><ele>1528.4</ele><time>2019-07-15T17:32:38Z</time></trkpt>
<trkpt lat="46.22269" lon="7.43538"><ele>1531.6</ele><time>2019-07-15T17:32:47Z</time></trkpt>
<trkpt lat="46.22265" lon="7.4353"><ele>1532.2</ele><time>2019-07-15T17:32:50Z</time></trkpt>
<trkpt lat="46.22254" lon="7.43511"><ele>1533.8</ele><time>2019-07-15T17:32:58Z</time></trkpt>
<trkpt lat="46.2225" lon="7.43504"><ele>1534.4</ele><time>2019-07-15T17:33:01Z</time></trkpt>
<trkpt lat="46.22239" lon="7.43495"><ele>1534.4</ele><time>2019-07-15T17:33:06Z</time></trkpt>
<trkpt lat="46.22224" lon="7.43484"><ele>1533</ele><time>2019-07-15T17:33:13Z</time></trkpt>
<trkpt lat="46.22213" lon="7.43489"><ele>1532</ele><time>2019-07-15T17:33:20Z</time></trkpt>
<trkpt lat="46.2221" lon="7.43498"><ele>1531.8</ele><time>2019-07-15T17:33:26Z</time></trkpt>
<trkpt lat="46.22207" lon="7.43507"><ele>1531.8</ele><time>2019-07-15T17:33:32Z</time></trkpt>
<trkpt lat="46.22203" lon="7.43517"><ele>1532.6</ele><time>2019-07-15T17:33:39Z</time></trkpt>
<trkpt lat="46.22202" lon="7.43526"><ele>1532.8</ele><time>2019-07-15T17:33:44Z</time></trkpt>
<trkpt lat="46.22198" lon="7.43544"><ele>1534.6</ele><time>2019-07-15T17:33:54Z</time></trkpt>
<trkpt lat="46.22194" lon="7.43555"><ele>1535.6</ele><time>2019-07-15T17:34:01Z</time></trkpt>
<trkpt lat="46.22182" lon="7.43566"><ele>1535.6</ele><time>2019-07-15T17:34:11Z</time></trkpt>
<trkpt lat="46.2217" lon="7.43568"><ele>1536</ele><time>2019-07-15T17:34:19Z</time></trkpt>
<trkpt lat="46.22152" lon="7.43561"><ele>1538</ele><time>2019-07-15T17:34:32Z</time></trkpt>
<trkpt lat="46.2214" lon="7.43549"><ele>1540.2</ele><time>2019-07-15T17:34:42Z</time></trkpt>
<trkpt lat="46.22138" lon="7.43547"><ele>1541</ele><time>2019-07-15T17:34:44Z</time></trkpt>
<trkpt lat="46.22134" lon="7.43542"><ele>1542.2</ele><time>2019-07-15T17:34:48Z</time></trkpt>
<trkpt lat="46.22126" lon="7.43542"><ele>1544</ele><time>2019-07-15T17:34:53Z</time></trkpt>
<trkpt lat="46.22117" lon="7.43548"><ele>1545.8</ele><time>2019-07-15T17:34:58Z</time></trkpt>
<trkpt lat="46.22107" lon="7.4356"><ele>1548.2</ele><time>2019-07-15T17:35:03Z</time></trkpt>
<trkpt lat="46.22094" lon="7.43578"><ele>1550.8</ele><time>2019-07-15T17:35:09Z</time></trkpt>
<trkpt lat="46.22084" lon="7.43584"><ele>1551.8</ele><time>2019-07-15T17:35:12Z</time></trkpt>
<trkpt lat="46.22065" lon="7.43587"><ele>1551.2</ele><time>2019-07-15T17:35:18Z</time></trkpt>
<trkpt lat="46.22049" lon="7.43575"><ele>1549.4</ele><time>2019-07-15T17:35:27Z</time></trkpt>
<trkpt lat="46.22045" lon="7.4355"><ele>1547</ele><time>2019-07-15T17:35:34Z</time></trkpt>
<trkpt lat="46.22042" lon="7.43537"><ele>1546.8</ele><time>2019-07-15T17:35:36Z</time></trkpt>
<trkpt lat="46.22028" lon="7.43525"><ele>1543.6</ele><time>2019-07-15T17:35:39Z</time></trkpt>
<trkpt lat="46.22005" lon="7.43524"><ele>1540.6</ele><time>2019-07-15T17:35:42Z</time></trkpt>
<trkpt lat="46.21998" lon="7.43525"><ele>1539.4</ele><time>2019-07-15T17:35:43Z</time></trkpt>
<trkpt lat="46.21974" lon="7.43531"><ele>1537</ele><time>2019-07-15T17:35:46Z</time></trkpt>
<trkpt lat="46.21948" lon="7.43536"><ele>1534.4</ele><time>2019-07-15T17:35:49Z</time></trkpt>
<trkpt lat="46.21923" lon="7.43539"><ele>1531.6</ele><time>2019-07-15T17:35:52Z</time></trkpt>
<trkpt lat="46.21914" lon="7.43537"><ele>1531</ele><time>2019-07-15T17:35:53Z</time></trkpt>
<trkpt lat="46.21905" lon="7.43533"><ele>1531.4</ele><time>2019-07-15T17:35:54Z</time></trkpt>
<trkpt lat="46.21889" lon="7.43523"><ele>1530.8</ele><time>2019-07-15T17:35:56Z</time></trkpt>
<trkpt lat="46.21881" lon="7.43519"><ele>1530.2</ele><time>2019-07-15T17:35:57Z</time></trkpt>
<trkpt lat="46.21863" lon="7.43517"><ele>1528.4</ele><time>2019-07-15T17:35:59Z</time></trkpt>
<trkpt lat="46.21845" lon="7.43524"><ele>1526.2</ele><time>2019-07-15T17:36:01Z</time></trkpt>
<trkpt lat="46.21835" lon="7.4353"><ele>1525.2</ele><time>2019-07-15T17:36:02Z</time></trkpt>
<trkpt lat="46.21816" lon="7.43542"><ele>1523.2</ele><time>2019-07-15T17:36:04Z</time></trkpt>
<trkpt lat="46.21796" lon="7.43554"><ele>1521.8</ele><time>2019-07-15T17:36:06Z</time></trkpt>
<trkpt lat="46.21775" lon="7.43567"><ele>1520</ele><time>2019-07-15T17:36:08Z</time></trkpt>
<trkpt lat="46.21753" lon="7.43578"><ele>1518</ele><time>2019-07-15T17:36:10Z</time></trkpt>
<trkpt lat="46.2173" lon="7.43584"><ele>1516</ele><time>2019-07-15T17:36:12Z</time></trkpt>
<trkpt lat="46.21707" lon="7.43586"><ele>1512.6</ele><time>2019-07-15T17:36:14Z</time></trkpt>
<trkpt lat="46.21683" lon="7.43582"><ele>1510.6</ele><time>2019-07-15T17:36:16Z</time></trkpt>
<trkpt lat="46.21658" lon="7.43576"><ele>1508.2</ele><time>2019-07-15T17:36:18Z</time></trkpt>
<trkpt lat="46.21633" lon="7.43572"><ele>1505.8</ele><time>2019-07-15T17:36:20Z</time></trkpt>
<trkpt lat="46.21609" lon="7.43571"><ele>1503.6</ele><time>2019-07-15T17:36:22Z</time></trkpt>
<trkpt lat="46.21584" lon="7.43569"><ele>1501</ele><time>2019-07-15T17:36:24Z</time></trkpt>
<trkpt lat="46.21559" lon="7.43565"><ele>1498.4</ele><time>2019-07-15T17:36:26Z</time></trkpt>
<trkpt lat="46.21548" lon="7.4356"><ele>1497.4</ele><time>2019-07-15T17:36:27Z</time></trkpt>
<trkpt lat="46.21526" lon="7.43543"><ele>1494.8</ele><time>2019-07-15T17:36:29Z</time></trkpt>
<trkpt lat="46.2151" lon="7.43519"><ele>1492</ele><time>2019-07-15T17:36:31Z</time></trkpt>
<trkpt lat="46.21504" lon="7.43507"><ele>1490.6</ele><time>2019-07-15T17:36:32Z</time></trkpt>
<trkpt lat="46.21497" lon="7.43498"><ele>1489.6</ele><time>2019-07-15T17:36:33Z</time></trkpt>
<trkpt lat="46.2149" lon="7.43491"><ele>1489.2</ele><time>2019-07-15T17:36:34Z</time></trkpt>
<trkpt lat="46.21472" lon="7.4349"><ele>1487.2</ele><time>2019-07-15T17:36:36Z</time></trkpt>
<trkpt lat="46.21453" lon="7.43497"><ele>1485.6</ele><time>2019-07-15T17:36:38Z</time></trkpt>
<trkpt lat="46.21433" lon="7.43507"><ele>1484</ele><time>2019-07-15T17:36:40Z</time></trkpt>
<trkpt lat="46.21415" lon="7.43525"><ele>1482</ele><time>2019-07-15T17:36:42Z</time></trkpt>
<trkpt lat="46.21397" lon="7.43545"><ele>1479.8</ele><time>2019-07-15T17:36:44Z</time></trkpt>
<trkpt lat="46.21377" lon="7.43562"><ele>1477.6</ele><time>2019-07-15T17:36:46Z</time></trkpt>
<trkpt lat="46.21357" lon="7.43578"><ele>1475.8</ele><time>2019-07-15T17:36:48Z</time></trkpt>
<trkpt lat="46.21338" lon="7.43594"><ele>1473.8</ele><time>2019-07-15T17:36:50Z</time></trkpt>
<trkpt lat="46.21319" lon="7.4361"><ele>1472</ele><time>2019-07-15T17:36:52Z</time></trkpt>
<trkpt lat="46.21309" lon="7.43619"><ele>1471</ele><time>2019-07-15T17:36:53Z</time></trkpt>
<trkpt lat="46.2129" lon="7.43636"><ele>1469.2</ele><time>2019-07-15T17:36:55Z</time></trkpt>
<trkpt lat="46.2127" lon="7.43656"><ele>1467.6</ele><time>2019-07-15T17:36:57Z</time></trkpt>
<trkpt lat="46.2125" lon="7.43675"><ele>1465.8</ele><time>2019-07-15T17:36:59Z</time></trkpt>
<trkpt lat="46.21231" lon="7.43695"><ele>1463.8</ele><time>2019-07-15T17:37:01Z</time></trkpt>
<trkpt lat="46.21223" lon="7.43706"><ele>1462.8</ele><time>2019-07-15T17:37:02Z</time></trkpt>
<trkpt lat="46.21211" lon="7.43731"><ele>1463.4</ele><time>2019-07-15T17:37:04Z</time></trkpt>
<trkpt lat="46.21198" lon="7.43748"><ele>1465.8</ele><time>2019-07-15T17:37:06Z</time></trkpt>
<trkpt lat="46.21186" lon="7.43766"><ele>1468.2</ele><time>2019-07-15T17:37:09Z</time></trkpt>
<trkpt lat="46.21176" lon="7.43788"><ele>1470.8</ele><time>2019-07-15T17:37:15Z</time></trkpt>
<trkpt lat="46.21174" lon="7.43794"><ele>1471.4</ele><time>2019-07-15T17:37:18Z</time></trkpt>
<trkpt lat="46.21167" lon="7.43806"><ele>1472.6</ele><time>2019-07-15T17:37:24Z</time></trkpt>
<trkpt lat="46.21164" lon="7.43812"><ele>1472.8</ele><time>2019-07-15T17:37:26Z</time></trkpt>
<trkpt lat="46.21161" lon="7.43817"><ele>1473</ele><time>2019-07-15T17:37:28Z</time></trkpt>
<trkpt lat="46.21152" lon="7.43831"><ele>1473.8</ele><time>2019-07-15T17:37:33Z</time></trkpt>
<trkpt lat="46.21139" lon="7.43851"><ele>1475.2</ele><time>2019-07-15T17:37:40Z</time></trkpt>
<trkpt lat="46.21128" lon="7.43864"><ele>1476.6</ele><time>2019-07-15T17:37:45Z</time></trkpt>
<trkpt lat="46.21124" lon="7.43868"><ele>1477.2</ele><time>2019-07-15T17:37:47Z</time></trkpt>
<trkpt lat="46.21117" lon="7.43872"><ele>1477.8</ele><time>2019-07-15T17:37:50Z</time></trkpt>
<trkpt lat="46.21108" lon="7.43878"><ele>1479</ele><time>2019-07-15T17:37:55Z</time></trkpt>
<trkpt lat="46.21102" lon="7.43883"><ele>1479.6</ele><time>2019-07-15T17:37:59Z</time></trkpt>
<trkpt lat="46.21084" lon="7.43895"><ele>1481.4</ele><time>2019-07-15T17:38:08Z</time></trkpt>
<trkpt lat="46.2107" lon="7.43905"><ele>1483</ele><time>2019-07-15T17:38:15Z</time></trkpt>
<trkpt lat="46.21055" lon="7.43923"><ele>1485</ele><time>2019-07-15T17:38:24Z</time></trkpt>
<trkpt lat="46.21042" lon="7.43946"><ele>1486.8</ele><time>2019-07-15T17:38:33Z</time></trkpt>
<trkpt lat="46.2102" lon="7.43976"><ele>1490</ele><time>2019-07-15T17:38:47Z</time></trkpt>
<trkpt lat="46.21005" lon="7.43993"><ele>1492.4</ele><time>2019-07-15T17:38:56Z</time></trkpt>
<trkpt lat="46.20988" lon="7.44008"><ele>1494.6</ele><time>2019-07-15T17:39:05Z</time></trkpt>
<trkpt lat="46.20972" lon="7.44023"><ele>1496.6</ele><time>2019-07-15T17:39:15Z</time></trkpt>
<trkpt lat="46.20956" lon="7.44036"><ele>1498.8</ele><time>2019-07-15T17:39:25Z</time></trkpt>
<trkpt lat="46.20948" lon="7.44041"><ele>1500</ele><time>2019-07-15T17:39:30Z</time></trkpt>
<trkpt lat="46.20925" lon="7.44041"><ele>1503</ele><time>2019-07-15T17:39:42Z</time></trkpt>
<trkpt lat="46.20908" lon="7.4403"><ele>1505.4</ele><time>2019-07-15T17:39:53Z</time></trkpt>
<trkpt lat="46.20889" lon="7.44027"><ele>1507.6</ele><time>2019-07-15T17:40:03Z</time></trkpt>
<trkpt lat="46.20881" lon="7.44032"><ele>1508.6</ele><time>2019-07-15T17:40:07Z</time></trkpt>
<trkpt lat="46.20879" lon="7.44033"><ele>1508.6</ele><time>2019-07-15T17:40:08Z</time></trkpt>
<trkpt lat="46.20873" lon="7.44036"><ele>1509.2</ele><time>2019-07-15T17:40:11Z</time></trkpt>
<trkpt lat="46.20842" lon="7.44052"><ele>1512</ele><time>2019-07-15T17:40:25Z</time></trkpt>
<trkpt lat="46.20832" lon="7.44057"><ele>1513</ele><time>2019-07-15T17:40:29Z</time></trkpt>
<trkpt lat="46.20813" lon="7.44066"><ele>1514.4</ele><time>2019-07-15T17:40:37Z</time></trkpt>
<trkpt lat="46.20795" lon="7.44072"><ele>1515.8</ele><time>2019-07-15T17:40:44Z</time></trkpt>
<trkpt lat="46.20782" lon="7.44073"><ele>1516.8</ele><time>2019-07-15T17:40:49Z</time></trkpt>
<trkpt lat="46.20777" lon="7.44073"><ele>1516.8</ele><time>2019-07-15T17:40:51Z</time></trkpt>
<trkpt lat="46.20759" lon="7.44071"><ele>1518.2</ele><time>2019-07-15T17:40:58Z</time></trkpt>
<trkpt lat="46.20739" lon="7.44068"><ele>1519.6</ele><time>2019-07-15T17:41:06Z</time></trkpt>
<trkpt lat="46.2072" lon="7.44062"><ele>1520.8</ele><time>2019-07-15T17:41:14Z</time></trkpt>
<trkpt lat="46.20706" lon="7.44057"><ele>1522</ele><time>2019-07-15T17:41:20Z</time></trkpt>
<trkpt lat="46.207" lon="7.44053"><ele>1522.4</ele><time>2019-07-15T17:41:23Z</time></trkpt>
<trkpt lat="46.20681" lon="7.44041"><ele>1523.2</ele><time>2019-07-15T17:41:31Z</time></trkpt>
<trkpt lat="46.20665" lon="7.44025"><ele>1523.8</ele><time>2019-07-15T17:41:39Z</time></trkpt>
<trkpt lat="46.20652" lon="7.44006"><ele>1524</ele><time>2019-07-15T17:41:46Z</time></trkpt>
<trkpt lat="46.20642" lon="7.43989"><ele>1524</ele><time>2019-07-15T17:41:52Z</time></trkpt>
<trkpt lat="46.20641" lon="7.43987"><ele>1524</ele><time>2019-07-15T17:41:54Z</time></trkpt>
<trkpt lat="46.20641" lon="7.43987"><ele>1524.2</ele><time>2019-07-15T17:41:56Z</time></trkpt>
</trkseg></trk></gpx>